Time;durP1;ratioP1;P1;durP2;ratioP2;P2;SDS_P1;SDS_P2;PMS_P1;PMS_P2;Temp;Humidity;BMP_temperature;BMP_pressure;BME280_temperature;BME280_humidity;BME280_pressure;Samples;Min_cycle;Max_cycle;Signal;HPM_P1;HPM_P2
2024/04/02 00:01:57;;;;;;;;;;;11.00;99.90;;;11.11;67.38;99066.41;5064666;28;19946;-84
2024/04/02 00:04:26;;;;;;;;;;;10.90;99.90;;;11.15;67.65;99064.06;5081737;28;19925;-84
2024/04/02 00:06:55;;;;;;;;;;;10.90;99.90;;;11.09;67.67;99058.66;5081989;28;19925;-84
2024/04/02 00:09:24;;;;;;;;;;;11.00;99.90;;;11.15;67.86;99054.19;5082058;28;19946;-84
2024/04/02 00:11:52;;;;;;;;;;;11.00;99.90;;;11.12;67.47;99060.03;5081958;28;19928;-84
2024/04/02 00:14:21;;;;;;;;;;;11.00;99.90;;;11.12;67.44;99053.88;5080143;28;19925;-84
2024/04/02 00:16:53;;;;;;;;;;;10.90;99.90;;;11.09;67.21;99056.00;5081150;28;19928;-84
2024/04/02 00:19:19;;;;;;;;;;;10.90;99.90;;;11.07;67.57;99057.28;5082154;28;20354;-84
2024/04/02 00:21:49;;;;;;;;;;;10.90;99.90;;;11.08;67.79;99064.28;5082201;28;20436;-84
2024/04/02 00:24:17;;;;;;;;;;;10.90;99.90;;;11.09;67.32;99069.34;5080048;28;20007;-84
2024/04/02 00:26:44;;;;;;;;;;;10.90;99.90;;;11.01;66.99;99063.63;5080416;28;20343;-84
2024/04/02 00:29:10;;;;;;;;;;;10.80;99.90;;;11.05;67.43;99067.41;5080581;28;19932;-84
2024/04/02 00:31:39;;;;;;;;;;;10.90;99.90;;;11.06;67.20;99071.69;5097130;28;19925;-84
2024/04/02 00:34:05;;;;;;;;;;;10.80;99.90;;;11.04;66.81;99071.97;5081621;28;19924;-84
2024/04/02 00:36:33;;;;;;;;;;;10.80;99.90;;;10.94;66.98;99073.69;5081588;28;19924;-84
2024/04/02 00:38:59;;;;;;;;;;;10.80;99.90;;;10.95;67.04;99078.78;5079935;28;19924;-84
2024/04/02 00:41:28;;;;;;;;;;;10.70;99.90;;;10.90;67.43;99085.91;5080532;28;20346;-84
2024/04/02 00:43:56;;;;;;;;;;;10.70;99.90;;;10.87;67.10;99075.72;5061191;28;19924;-84
2024/04/02 00:46:23;;;;;;;;;;;10.70;99.90;;;10.86;67.02;99082.91;5059153;28;19983;-84
2024/04/02 00:48:51;;;;;;;;;;;10.70;99.90;;;10.83;67.58;99089.56;5059546;28;19957;-84
2024/04/02 00:51:18;;;;;;;;;;;10.60;99.90;;;10.90;67.69;99084.03;5060667;28;19935;-84
2024/04/02 00:53:46;;;;;;;;;;;10.60;99.90;;;10.92;67.65;99078.47;5060670;28;19982;-83
2024/04/02 00:56:13;;;;;;;;;;;10.70;99.90;;;10.85;67.25;99091.19;5060669;28;20392;-83
2024/04/02 00:58:41;;;;;;;;;;;10.60;99.90;;;10.83;67.46;99092.25;5060555;28;19975;-84
2024/04/02 01:01:08;;;;;;;;;;;10.60;99.90;;;10.82;67.39;99093.28;5060977;28;20008;-84
2024/04/02 01:03:34;;;;;;;;;;;10.60;99.90;;;10.72;67.26;99092.34;5061182;28;19925;-83
2024/04/02 01:06:01;;;;;;;;;;;10.50;99.90;;;10.74;67.49;99091.03;5059183;28;19928;-84
2024/04/02 01:08:28;;;;;;;;;;;10.50;99.90;;;10.67;67.10;99093.06;5066310;28;19935;-84
2024/04/02 01:10:55;;;;;;;;;;;10.50;99.90;;;10.72;67.60;99095.00;5080592;28;19939;-84
2024/04/02 01:13:21;;;;;;;;;;;10.50;99.90;;;10.69;67.49;99096.31;5078878;28;19990;-83
2024/04/02 01:15:50;;;;;;;;;;;10.50;99.90;;;10.72;67.76;99098.47;5061837;28;19924;-84
2024/04/02 01:18:16;;;;;;;;;;;10.50;99.90;;;10.64;67.46;99093.56;5079452;28;20399;-84
2024/04/02 01:20:43;;;;;;;;;;;10.40;99.90;;;10.58;67.73;99102.53;5080184;28;19924;-84
2024/04/02 01:23:09;;;;;;;;;;;10.40;99.90;;;10.65;67.74;99103.19;5079485;28;19987;-83
2024/04/02 01:25:39;;;;;;;;;;;10.40;99.90;;;10.65;67.85;99111.19;5079132;28;19924;-84
2024/04/02 01:28:05;;;;;;;;;;;10.40;99.90;;;10.62;67.88;99103.66;5046161;28;19925;-84
2024/04/02 01:30:32;;;;;;;;;;;10.40;99.90;;;10.63;67.71;99107.94;5080714;28;19924;-83
2024/04/02 01:32:58;;;;;;;;;;;10.40;99.90;;;10.57;68.00;99106.25;5079043;28;20395;-84
2024/04/02 01:35:26;;;;;;;;;;;10.40;99.90;;;10.59;67.87;99109.50;5078568;28;19925;-84
2024/04/02 01:37:52;;;;;;;;;;;10.40;99.90;;;10.56;67.67;99110.78;5078102;28;20369;-84
2024/04/02 01:40:19;;;;;;;;;;;10.40;99.90;;;10.56;67.60;99121.44;5095537;28;20002;-83
2024/04/02 01:42:46;;;;;;;;;;;10.40;99.90;;;10.57;68.09;99124.91;5079949;28;19968;-84
2024/04/02 01:45:13;;;;;;;;;;;10.30;99.90;;;10.62;67.62;99127.66;5079874;28;20042;-83
2024/04/02 01:47:40;;;;;;;;;;;10.40;99.90;;;10.64;67.51;99127.41;5080391;28;19947;-84
2024/04/02 01:50:07;;;;;;;;;;;10.40;99.90;;;10.58;67.62;99131.84;5079753;28;19924;-84
2024/04/02 01:52:33;;;;;;;;;;;10.40;99.90;;;10.58;68.00;99134.53;5079203;28;19924;-83
2024/04/02 01:55:00;;;;;;;;;;;10.40;99.90;;;10.56;67.64;99126.78;5079868;28;19931;-83
2024/04/02 01:57:26;;;;;;;;;;;10.40;99.90;;;10.49;67.70;99133.31;5062482;28;19924;-84
2024/04/02 01:59:55;;;;;;;;;;;10.40;99.90;;;10.48;68.12;99137.84;5059467;28;19991;-84
2024/04/02 02:02:22;;;;;;;;;;;10.30;99.90;;;10.47;67.78;99136.22;5060263;28;19974;-84
2024/04/02 02:04:49;;;;;;;;;;;10.30;99.90;;;10.50;68.44;99134.94;5041689;28;19929;-84
2024/04/02 02:07:15;;;;;;;;;;;10.30;99.90;;;10.52;67.76;99143.50;5069881;28;19968;-84
2024/04/02 02:09:43;;;;;;;;;;;10.30;99.90;;;10.54;68.17;99133.38;5078998;28;19925;-83
2024/04/02 02:12:10;;;;;;;;;;;10.30;99.90;;;10.50;68.14;99142.94;5077805;28;19928;-84
2024/04/02 02:14:37;;;;;;;;;;;10.30;99.90;;;10.55;68.20;99148.34;5061015;28;19924;-83
2024/04/02 02:17:04;;;;;;;;;;;10.30;99.90;;;10.55;68.22;99143.03;5063112;28;19987;-84
2024/04/02 02:19:32;;;;;;;;;;;10.30;99.90;;;10.46;68.18;99149.81;5059228;28;19929;-84
2024/04/02 02:21:58;;;;;;;;;;;10.30;99.90;;;10.48;68.27;99150.38;5058503;28;19940;-84
2024/04/02 02:24:25;;;;;;;;;;;10.30;99.90;;;10.48;68.22;99155.69;5057531;28;20356;-84
2024/04/02 02:26:51;;;;;;;;;;;10.30;99.90;;;10.54;68.28;99149.38;5058463;28;19971;-84
2024/04/02 02:29:22;;;;;;;;;;;10.30;99.90;;;10.55;68.07;99149.16;5041861;28;19929;-83
2024/04/02 02:31:48;;;;;;;;;;;10.30;99.90;;;10.53;68.16;99153.91;5058026;28;20339;-84
2024/04/02 02:34:17;;;;;;;;;;;10.30;99.90;;;10.48;68.20;99150.38;5046426;28;20383;-83
2024/04/02 02:36:43;;;;;;;;;;;10.30;99.90;;;10.52;68.21;99154.16;5060827;28;19964;-84
2024/04/02 02:39:11;;;;;;;;;;;10.30;99.90;;;10.47;68.24;99162.09;5079159;28;19924;-84
2024/04/02 02:41:37;;;;;;;;;;;10.20;99.90;;;10.52;68.48;99162.16;5079157;28;20391;-84
2024/04/02 02:44:05;;;;;;;;;;;10.20;99.90;;;10.43;68.49;99166.28;5093904;28;19931;-84
2024/04/02 02:46:31;;;;;;;;;;;10.20;99.90;;;10.42;68.60;99172.66;5078975;28;19924;-84
2024/04/02 02:49:01;;;;;;;;;;;10.20;99.90;;;10.47;68.63;99170.88;5079254;28;19925;-84
2024/04/02 02:51:29;;;;;;;;;;;10.20;99.90;;;10.51;68.96;99172.03;5078993;28;19925;-84
2024/04/02 02:53:56;;;;;;;;;;;10.30;99.90;;;10.49;68.24;99168.81;5060073;28;19931;-83
2024/04/02 02:56:22;;;;;;;;;;;10.30;99.90;;;10.50;68.63;99177.59;5078986;28;19974;-83
2024/04/02 02:58:51;;;;;;;;;;;10.30;99.90;;;10.50;68.52;99181.06;5077273;28;19928;-84
2024/04/02 03:01:18;;;;;;;;;;;10.30;99.90;;;10.54;68.80;99178.72;5078953;28;19985;-84
2024/04/02 03:03:47;;;;;;;;;;;10.30;99.90;;;10.48;68.36;99187.69;5076192;28;19924;-83
2024/04/02 03:06:13;;;;;;;;;;;10.30;99.90;;;10.51;68.24;99184.53;5076812;28;19925;-83
2024/04/02 03:08:42;;;;;;;;;;;10.30;99.90;;;10.51;68.68;99184.53;5078417;28;19925;-84
2024/04/02 03:11:09;;;;;;;;;;;10.30;99.90;;;10.48;68.49;99185.00;5078480;28;19936;-83
2024/04/02 03:13:37;;;;;;;;;;;10.30;99.90;;;10.54;68.74;99184.03;5061239;28;19925;-84
2024/04/02 03:16:04;;;;;;;;;;;10.30;99.90;;;10.55;68.42;99183.81;5059418;28;19978;-84
2024/04/02 03:18:31;;;;;;;;;;;10.30;99.90;;;10.55;68.37;99185.69;5060412;28;19978;-84
2024/04/02 03:21:00;;;;;;;;;;;10.30;99.90;;;10.53;68.49;99190.44;5062527;28;19924;-84
2024/04/02 03:23:27;;;;;;;;;;;10.30;99.90;;;10.52;67.91;99191.47;5045073;28;19924;-83
2024/04/02 03:25:56;;;;;;;;;;;10.30;99.90;;;10.44;68.69;99186.53;5062229;28;19925;-84
2024/04/02 03:28:24;;;;;;;;;;;10.20;99.90;;;10.39;68.48;99192.59;5060888;28;19952;-84
2024/04/02 03:30:56;;;;;;;;;;;10.20;99.90;;;10.43;68.65;99190.25;5074283;28;19924;-83
2024/04/02 03:33:23;;;;;;;;;;;10.20;99.90;;;10.35;68.59;99196.81;5082381;28;19925;-83
2024/04/02 03:35:50;;;;;;;;;;;10.20;99.90;;;10.31;68.77;99199.16;5080549;28;20039;-83
2024/04/02 03:38:17;;;;;;;;;;;10.10;99.90;;;10.29;68.59;99195.09;5080736;28;19932;-83
2024/04/02 03:40:46;;;;;;;;;;;10.10;99.90;;;10.35;68.80;99198.69;5082624;28;19925;-83
2024/04/02 03:43:15;;;;;;;;;;;10.10;99.90;;;10.40;68.72;99202.22;5082270;28;20415;-83
2024/04/02 03:45:45;;;;;;;;;;;10.20;99.90;;;10.35;68.36;99212.00;5070947;28;21360;-84
2024/04/02 03:48:14;;;;;;;;;;;10.10;99.90;;;10.32;68.94;99206.09;5060507;28;20411;-84
2024/04/02 03:50:41;;;;;;;;;;;10.10;99.90;;;10.36;69.12;99210.94;5065471;28;19931;-83
2024/04/02 03:53:07;;;;;;;;;;;10.10;99.90;;;10.39;69.04;99215.78;5081724;28;19924;-83
2024/04/02 03:55:35;;;;;;;;;;;10.10;99.90;;;10.31;69.12;99215.13;5080181;28;19925;-83
2024/04/02 03:58:02;;;;;;;;;;;10.10;99.90;;;10.32;69.29;99214.09;5059009;28;20008;-83
2024/04/02 04:00:31;;;;;;;;;;;10.10;99.90;;;10.31;69.12;99223.13;5062437;28;19924;-83
2024/04/02 04:03:00;;;;;;;;;;;10.10;99.90;;;10.27;69.48;99219.31;5062175;28;19925;-83
2024/04/02 04:05:27;;;;;;;;;;;10.10;99.90;;;10.29;69.61;99219.88;5059978;28;19929;-84
2024/04/02 04:07:53;;;;;;;;;;;10.10;99.90;;;10.24;69.74;99222.47;5061698;28;19925;-84
2024/04/02 04:10:21;;;;;;;;;;;10.00;99.90;;;10.27;69.50;99223.84;5060685;28;19947;-84
2024/04/02 04:12:48;;;;;;;;;;;10.10;99.90;;;10.27;69.56;99224.66;5061115;28;19955;-83
2024/04/02 04:15:15;;;;;;;;;;;10.10;99.90;;;10.30;69.72;99229.50;5059928;28;19925;-82
2024/04/02 04:17:43;;;;;;;;;;;10.10;99.90;;;10.35;69.75;99230.66;5058454;28;19929;-83
2024/04/02 04:20:11;;;;;;;;;;;10.10;99.90;;;10.36;69.60;99238.41;5058141;28;19968;-83
2024/04/02 04:22:37;;;;;;;;;;;10.10;99.90;;;10.36;69.40;99235.75;5059325;28;20019;-83
2024/04/02 04:25:08;;;;;;;;;;;10.20;99.90;;;10.31;69.57;99241.78;5042026;28;19924;-82
2024/04/02 04:27:37;;;;;;;;;;;10.20;99.90;;;10.38;69.83;99246.16;5042649;28;20363;-82
2024/04/02 04:30:05;;;;;;;;;;;10.20;99.90;;;10.46;69.61;99248.44;5041988;28;20008;-82
2024/04/02 04:32:32;;;;;;;;;;;10.20;99.90;;;10.32;69.77;99238.06;5059297;28;19932;-82
2024/04/02 04:35:00;;;;;;;;;;;10.20;99.90;;;10.38;70.06;99240.81;5058305;28;19925;-82
2024/04/02 04:37:27;;;;;;;;;;;10.20;99.90;;;10.36;69.76;99248.25;5058492;28;19925;-83
2024/04/02 04:39:54;;;;;;;;;;;10.20;99.90;;;10.38;69.87;99240.81;5057131;28;19932;-83
2024/04/02 04:42:22;;;;;;;;;;;10.20;99.90;;;10.30;69.71;99255.34;5058959;28;19925;-83
2024/04/02 04:44:50;;;;;;;;;;;10.20;99.90;;;10.29;70.07;99264.38;5041331;28;19929;-83
2024/04/02 04:47:16;;;;;;;;;;;10.20;99.90;;;10.23;69.84;99255.44;5041416;28;19928;-82
2024/04/02 04:49:43;;;;;;;;;;;10.20;99.90;;;10.27;70.15;99261.97;5057265;28;19925;-82
2024/04/02 04:52:11;;;;;;;;;;;10.20;99.90;;;10.29;70.01;99259.84;5059057;28;20402;-82
2024/04/02 04:54:39;;;;;;;;;;;10.20;99.90;;;10.34;69.95;99263.66;5025248;28;19924;-83
2024/04/02 04:57:05;;;;;;;;;;;10.20;99.90;;;10.38;70.03;99256.81;5057689;28;19925;-82
2024/04/02 04:59:34;;;;;;;;;;;10.20;99.90;;;10.37;70.25;99265.84;5060454;28;20288;-84
2024/04/02 05:02:01;;;;;;;;;;;10.20;99.90;;;10.25;70.24;99261.41;5060947;28;19925;-84
2024/04/02 05:04:28;;;;;;;;;;;10.20;99.90;;;10.31;70.37;99279.09;5060161;28;19929;-81
2024/04/02 05:06:54;;;;;;;;;;;10.20;99.90;;;10.38;70.68;99272.81;5079342;28;20399;-81
2024/04/02 05:09:23;;;;;;;;;;;10.30;99.90;;;10.40;71.10;99273.38;5078088;28;19924;-81
2024/04/02 05:11:50;;;;;;;;;;;10.30;99.90;;;10.36;71.60;99290.91;5079060;28;19968;-81
2024/04/02 05:14:17;;;;;;;;;;;10.30;99.90;;;10.42;71.96;99279.28;5079466;28;19924;-82
2024/04/02 05:16:45;;;;;;;;;;;10.20;99.90;;;10.38;71.88;99291.47;5079738;28;19928;-81
2024/04/02 05:19:13;;;;;;;;;;;10.20;99.90;;;10.36;72.30;99296.22;5079923;28;19925;-82
2024/04/02 05:21:39;;;;;;;;;;;10.20;99.90;;;10.36;72.64;99297.03;5061072;28;19928;-82
2024/04/02 05:24:07;;;;;;;;;;;10.20;99.90;;;10.40;73.03;99295.50;5077066;28;20023;-81
2024/04/02 05:26:34;;;;;;;;;;;10.20;99.90;;;10.41;73.25;99302.47;5060614;28;19976;-81
2024/04/02 05:29:01;;;;;;;;;;;10.20;99.90;;;10.44;73.34;99303.81;5079182;28;19931;-81
2024/04/02 05:31:28;;;;;;;;;;;10.20;99.90;;;10.45;73.35;99302.78;5079731;28;20403;-81
2024/04/02 05:33:55;;;;;;;;;;;10.20;99.90;;;10.42;73.55;99304.06;5064775;28;19925;-81
2024/04/02 05:36:22;;;;;;;;;;;10.20;99.90;;;10.43;73.57;99302.22;5057884;28;19964;-81
2024/04/02 05:38:49;;;;;;;;;;;10.20;99.90;;;10.43;73.86;99305.69;5057052;28;19925;-81
2024/04/02 05:41:15;;;;;;;;;;;10.20;99.90;;;10.43;73.97;99307.53;5057946;28;19979;-81
2024/04/02 05:43:44;;;;;;;;;;;10.20;99.90;;;10.42;74.01;99312.06;5040488;28;19932;-82
2024/04/02 05:46:10;;;;;;;;;;;10.20;99.90;;;10.45;73.89;99314.25;5057383;28;19967;-82
2024/04/02 05:48:38;;;;;;;;;;;10.20;99.90;;;10.48;74.17;99316.44;5058557;28;19932;-82
2024/04/02 05:51:04;;;;;;;;;;;10.20;99.90;;;10.50;74.05;99318.88;5058728;28;20011;-81
2024/04/02 05:53:31;;;;;;;;;;;10.30;99.90;;;10.50;74.00;99327.69;5058224;28;20019;-81
2024/04/02 05:55:59;;;;;;;;;;;10.30;99.90;;;10.52;73.94;99316.78;5057008;28;19924;-81
2024/04/02 05:58:26;;;;;;;;;;;10.30;99.90;;;10.52;73.71;99322.91;5058472;28;20023;-81
2024/04/02 06:01:02;;;;;;;;;;;10.30;99.90;;;10.50;74.29;99327.69;5075462;28;19924;-82
2024/04/02 06:03:30;;;;;;;;;;;10.20;99.90;;;10.51;74.23;99336.50;5078095;28;20430;-81
2024/04/02 06:05:56;;;;;;;;;;;10.20;99.90;;;10.48;74.46;99335.09;5073862;28;19952;-81
2024/04/02 06:08:23;;;;;;;;;;;10.20;99.90;;;10.41;74.69;99342.44;5057349;28;19924;-81
2024/04/02 06:10:50;;;;;;;;;;;10.20;99.90;;;10.40;74.64;99338.16;5058151;28;20008;-81
2024/04/02 06:13:17;;;;;;;;;;;10.20;99.90;;;10.43;74.81;99347.53;5040048;28;19925;-81
2024/04/02 06:15:44;;;;;;;;;;;10.20;99.90;;;10.42;75.00;99344.06;5057668;28;19925;-81
2024/04/02 06:18:13;;;;;;;;;;;10.20;99.90;;;10.40;74.82;99343.50;5057043;28;19925;-82
2024/04/02 06:20:39;;;;;;;;;;;10.20;99.90;;;10.43;74.79;99339.53;5059660;28;20020;-83
2024/04/02 06:23:07;;;;;;;;;;;10.30;99.90;;;10.48;74.91;99348.41;5058333;28;20032;-83
2024/04/02 06:25:33;;;;;;;;;;;10.30;99.90;;;10.42;75.02;99349.38;5042129;28;19931;-83
2024/04/02 06:28:00;;;;;;;;;;;10.30;99.90;;;10.36;75.33;99342.34;5071163;28;19935;-84
2024/04/02 06:30:27;;;;;;;;;;;10.30;99.90;;;10.40;75.78;99345.34;5064789;28;20383;-84
2024/04/02 06:32:54;;;;;;;;;;;10.30;99.90;;;10.42;75.45;99346.72;5081454;28;20023;-84
2024/04/02 06:35:22;;;;;;;;;;;10.30;99.90;;;10.42;75.33;99352.03;5080697;28;19947;-84
2024/04/02 06:37:49;;;;;;;;;;;10.40;99.90;;;10.40;75.67;99346.16;5081802;28;19925;-84
2024/04/02 06:40:16;;;;;;;;;;;10.40;99.90;;;10.30;75.88;99351.28;5063996;28;19931;-84
2024/04/02 06:42:44;;;;;;;;;;;10.30;99.90;;;10.32;76.04;99352.66;5079469;28;19925;-84
2024/04/02 06:45:10;;;;;;;;;;;10.40;99.90;;;10.31;76.35;99348.38;5064273;28;19924;-83
2024/04/02 06:47:37;;;;;;;;;;;10.40;99.90;;;10.31;75.83;99360.91;5042321;28;19932;-84
2024/04/02 06:50:04;;;;;;;;;;;10.40;99.90;;;10.37;75.73;99359.94;5058822;28;20020;-85
2024/04/02 06:52:33;;;;;;;;;;;10.40;99.90;;;10.42;76.12;99359.25;5043289;28;19948;-84
2024/04/02 06:54:59;;;;;;;;;;;10.40;99.90;;;10.39;75.65;99360.50;5023355;28;20176;-86
2024/04/02 06:57:26;;;;;;;;;;;10.40;99.90;;;10.46;75.46;99360.38;5040303;28;19924;-83
2024/04/02 06:59:52;;;;;;;;;;;10.50;99.90;;;10.51;75.09;99363.16;5057177;28;20417;-85
2024/04/02 07:02:19;;;;;;;;;;;10.50;99.90;;;10.50;75.04;99361.53;5055022;28;19974;-86
2024/04/02 07:04:48;;;;;;;;;;;10.50;99.90;;;10.55;75.24;99370.44;5056628;28;19975;-81
2024/04/02 07:07:18;;;;;;;;;;;10.60;99.90;;;10.58;74.51;99369.13;5066343;28;19924;-80
2024/04/02 07:09:46;;;;;;;;;;;10.60;99.90;;;10.63;74.95;99377.22;5067368;28;20387;-80
2024/04/02 07:12:13;;;;;;;;;;;10.60;99.90;;;10.64;74.94;99368.19;5062366;28;19925;-80
2024/04/02 07:14:39;;;;;;;;;;;10.70;99.90;;;10.55;74.20;99374.97;5070538;28;19978;-80
2024/04/02 07:17:07;;;;;;;;;;;10.70;99.90;;;10.58;74.22;99375.28;5069502;28;19924;-81
2024/04/02 07:19:33;;;;;;;;;;;10.70;99.90;;;10.61;74.43;99383.84;5038911;28;19925;-80
2024/04/02 07:22:00;;;;;;;;;;;10.70;99.90;;;10.66;74.20;99387.41;5038718;28;20043;-80
2024/04/02 07:24:26;;;;;;;;;;;10.70;99.90;;;10.68;74.23;99384.50;5055084;28;20020;-80
2024/04/02 07:26:56;;;;;;;;;;;10.80;99.90;;;10.71;73.74;99390.19;5056358;28;19925;-80
2024/04/02 07:29:22;;;;;;;;;;;10.80;99.90;;;10.74;73.64;99392.38;5056413;28;19925;-82
2024/04/02 07:31:49;;;;;;;;;;;10.80;99.90;;;10.73;73.19;99388.06;5041188;28;19925;-81
2024/04/02 07:34:15;;;;;;;;;;;10.80;99.90;;;10.77;73.28;99388.41;5047344;28;19931;-80
2024/04/02 07:36:44;;;;;;;;;;;10.80;99.90;;;10.78;72.83;99396.19;5060781;28;19967;-80
2024/04/02 07:39:10;;;;;;;;;;;10.90;99.90;;;10.82;72.50;99396.50;5054836;28;19928;-81
2024/04/02 07:41:37;;;;;;;;;;;10.90;99.90;;;10.85;73.00;99400.56;5074795;28;19931;-80
2024/04/02 07:44:05;;;;;;;;;;;11.00;99.90;;;10.89;73.40;99402.53;5076048;28;20019;-80
2024/04/02 07:46:33;;;;;;;;;;;11.00;99.90;;;10.94;73.39;99402.59;5074771;28;19924;-80
2024/04/02 07:48:59;;;;;;;;;;;11.10;99.90;;;10.97;72.37;99409.31;5076720;28;20384;-80
2024/04/02 07:51:26;;;;;;;;;;;11.00;99.90;;;10.98;72.09;99421.59;5058810;28;19925;-80
2024/04/02 07:53:53;;;;;;;;;;;11.10;99.90;;;11.00;71.90;99416.84;5074955;28;19928;-80
2024/04/02 07:56:20;;;;;;;;;;;11.10;99.90;;;11.04;72.28;99415.31;5075116;28;19954;-80
2024/04/02 07:58:47;;;;;;;;;;;11.10;99.90;;;11.00;71.59;99422.97;5073953;28;20395;-80
2024/04/02 08:01:16;;;;;;;;;;;11.10;99.90;;;10.97;71.42;99422.66;5056971;28;19956;-80
2024/04/02 08:03:42;;;;;;;;;;;11.00;99.90;;;10.92;70.86;99428.69;5059369;28;19924;-80
2024/04/02 08:06:09;;;;;;;;;;;11.00;99.90;;;10.92;71.39;99433.22;5059822;28;20410;-80
2024/04/02 08:08:35;;;;;;;;;;;11.00;99.90;;;10.93;71.04;99434.84;5061546;28;19996;-80
2024/04/02 08:11:03;;;;;;;;;;;11.00;99.90;;;10.93;71.11;99434.84;5060309;28;19928;-80
2024/04/02 08:13:29;;;;;;;;;;;11.00;99.90;;;10.95;71.50;99446.09;5043665;28;20024;-81
2024/04/02 08:15:56;;;;;;;;;;;11.00;99.90;;;10.94;70.47;99442.63;5060364;28;19925;-80
2024/04/02 08:18:24;;;;;;;;;;;11.00;99.90;;;10.89;70.39;99445.19;5060501;28;19970;-80
2024/04/02 08:20:51;;;;;;;;;;;11.00;99.90;;;10.83;69.85;99452.31;5058865;28;19936;-80
2024/04/02 08:23:17;;;;;;;;;;;10.90;99.90;;;10.83;69.71;99443.47;5058040;28;19928;-80
2024/04/02 08:25:45;;;;;;;;;;;10.90;99.90;;;10.89;69.87;99455.06;5059680;28;19931;-80
2024/04/02 08:28:11;;;;;;;;;;;11.00;99.90;;;10.89;68.57;99455.88;5041615;28;19979;-81
2024/04/02 08:30:38;;;;;;;;;;;11.00;99.90;;;10.86;68.52;99456.34;5042517;28;19931;-80
2024/04/02 08:33:05;;;;;;;;;;;11.00;99.90;;;10.85;68.70;99460.06;5059944;28;19932;-80
2024/04/02 08:35:33;;;;;;;;;;;11.00;99.90;;;10.86;68.46;99467.00;5058020;28;19924;-80
2024/04/02 08:38:00;;;;;;;;;;;11.00;99.90;;;10.86;68.34;99466.19;5060518;28;19968;-80
2024/04/02 08:40:32;;;;;;;;;;;11.00;99.90;;;10.91;68.37;99468.97;5041961;28;19931;-80
2024/04/02 08:43:01;;;;;;;;;;;11.10;99.90;;;11.03;68.57;99472.41;5024321;28;19925;-80
2024/04/02 08:45:28;;;;;;;;;;;11.10;99.90;;;11.05;68.59;99475.63;5058416;28;20028;-81
2024/04/02 08:47:55;;;;;;;;;;;11.10;99.90;;;11.07;68.70;99465.53;5059878;28;19932;-82
2024/04/02 08:50:23;;;;;;;;;;;11.20;99.90;;;11.04;67.86;99460.69;5059208;28;19983;-80
2024/04/02 08:52:51;;;;;;;;;;;11.20;99.90;;;11.03;67.71;99456.41;5041735;28;19932;-80
2024/04/02 08:55:19;;;;;;;;;;;11.20;99.90;;;11.03;68.29;99470.53;5057866;28;19956;-80
2024/04/02 08:57:47;;;;;;;;;;;11.20;99.90;;;10.99;67.93;99472.06;5059024;28;19929;-80
2024/04/02 09:00:16;;;;;;;;;;;11.10;99.90;;;11.01;67.48;99461.16;5058468;28;19964;-83
2024/04/02 09:02:43;;;;;;;;;;;11.10;99.90;;;11.05;68.27;99473.78;5059083;28;19932;-81
2024/04/02 09:05:10;;;;;;;;;;;11.20;99.90;;;11.08;68.06;99477.84;5076194;28;19924;-81
2024/04/02 09:07:37;;;;;;;;;;;11.20;99.90;;;11.09;67.56;99474.13;5077885;28;19932;-81
2024/04/02 09:10:06;;;;;;;;;;;11.20;99.90;;;11.07;67.26;99470.84;5079817;28;19932;-81
2024/04/02 09:12:32;;;;;;;;;;;11.20;99.90;;;11.02;67.16;99479.56;5079329;28;19959;-81
2024/04/02 09:14:59;;;;;;;;;;;11.20;99.90;;;11.09;67.21;99487.44;5078112;28;19932;-81
2024/04/02 09:17:26;;;;;;;;;;;11.20;99.90;;;11.15;67.71;99480.34;5078657;28;20422;-84
2024/04/02 09:19:53;;;;;;;;;;;11.20;99.90;;;11.13;66.55;99480.59;5063975;28;19925;-83
2024/04/02 09:22:22;;;;;;;;;;;11.20;99.90;;;11.20;66.59;99491.13;5060223;28;20011;-83
2024/04/02 09:24:49;;;;;;;;;;;11.30;99.90;;;11.21;66.63;99490.88;5064881;28;19931;-81
2024/04/02 09:27:19;;;;;;;;;;;11.30;99.90;;;11.17;66.56;99489.72;5076655;28;20340;-80
2024/04/02 09:29:45;;;;;;;;;;;11.30;99.90;;;11.19;67.59;99484.97;5073947;28;20412;-80
2024/04/02 09:32:14;;;;;;;;;;;11.30;99.90;;;11.26;67.45;99482.94;5075234;28;19928;-80
2024/04/02 09:34:42;;;;;;;;;;;11.30;99.90;;;11.30;67.26;99492.09;5078743;28;19979;-80
2024/04/02 09:37:15;;;;;;;;;;;11.40;99.90;;;11.31;67.66;99490.25;5071672;28;20418;-80
2024/04/02 09:39:43;;;;;;;;;;;11.40;99.90;;;11.32;67.52;99490.03;5068016;28;20030;-80
2024/04/02 09:42:10;;;;;;;;;;;11.40;99.90;;;11.32;66.90;99487.34;5077437;28;20359;-80
2024/04/02 09:44:40;;;;;;;;;;;11.40;99.90;;;11.29;65.92;99487.81;5067263;28;19929;-80
2024/04/02 09:47:10;;;;;;;;;;;11.40;99.90;;;11.28;66.14;99485.41;5059263;28;19970;-80
2024/04/02 09:49:38;;;;;;;;;;;11.40;99.90;;;11.28;67.10;99496.06;5063494;28;20030;-80
2024/04/02 09:52:04;;;;;;;;;;;11.40;99.90;;;11.31;67.13;99499.06;5060982;28;19925;-80
2024/04/02 09:54:31;;;;;;;;;;;11.40;99.90;;;11.33;66.68;99494.31;5040629;28;20313;-80
2024/04/02 09:56:59;;;;;;;;;;;11.50;99.90;;;11.39;67.18;99494.38;5075060;28;19924;-80
2024/04/02 09:59:27;;;;;;;;;;;11.50;99.90;;;11.38;66.17;99498.94;5059912;28;19964;-81
2024/04/02 10:01:58;;;;;;;;;;;11.50;99.90;;;11.43;66.83;99498.19;5059974;28;19925;-80
2024/04/02 10:04:26;;;;;;;;;;;11.60;99.90;;;11.52;67.78;99497.56;5056322;28;19924;-80
2024/04/02 10:06:55;;;;;;;;;;;11.70;99.90;;;11.63;66.96;99495.88;5059676;28;20284;-80
2024/04/02 10:09:22;;;;;;;;;;;11.80;99.90;;;11.66;66.17;99500.72;5074256;28;19928;-80
2024/04/02 10:11:49;;;;;;;;;;;11.80;99.90;;;11.63;65.51;99508.41;5093461;28;19925;-80
2024/04/02 10:14:18;;;;;;;;;;;11.80;99.90;;;11.64;66.19;99499.34;5072449;28;20384;-80
2024/04/02 10:16:47;;;;;;;;;;;11.80;99.90;;;11.64;66.05;99499.34;5077752;28;19974;-80
2024/04/02 10:19:19;;;;;;;;;;;11.80;99.90;;;11.64;65.84;99510.84;5076468;28;19959;-81
2024/04/02 10:21:46;;;;;;;;;;;11.80;99.90;;;11.66;66.25;99502.56;5075180;28;20422;-80
2024/04/02 10:24:15;;;;;;;;;;;11.80;99.90;;;11.56;65.17;99514.69;5075761;28;19925;-80
2024/04/02 10:26:42;;;;;;;;;;;11.80;99.90;;;11.54;65.93;99506.13;5033954;28;19925;-81
2024/04/02 10:29:09;;;;;;;;;;;11.70;99.90;;;11.55;66.15;99506.94;5061388;28;19967;-81
2024/04/02 10:31:37;;;;;;;;;;;11.80;99.90;;;11.52;66.56;99505.59;5070167;28;19952;-80
2024/04/02 10:34:08;;;;;;;;;;;11.80;99.90;;;11.59;66.76;99510.75;5055953;28;19925;-80
2024/04/02 10:36:37;;;;;;;;;;;11.80;99.90;;;11.63;66.65;99503.09;5039042;28;19929;-80
2024/04/02 10:39:05;;;;;;;;;;;11.80;99.90;;;11.63;67.02;99508.41;5056131;28;19971;-80
2024/04/02 10:41:31;;;;;;;;;;;11.90;99.90;;;11.69;66.67;99510.91;5055440;28;19929;-80
2024/04/02 10:43:59;;;;;;;;;;;11.90;99.90;;;11.72;66.62;99502.44;5057419;28;20310;-81
2024/04/02 10:46:26;;;;;;;;;;;12.00;99.90;;;11.77;66.35;99499.03;5076522;28;19994;-84
2024/04/02 10:48:57;;;;;;;;;;;12.00;99.90;;;11.93;66.98;99505.47;5078644;28;19931;-83
2024/04/02 10:51:25;;;;;;;;;;;12.10;99.90;;;12.04;66.74;99499.22;5077746;28;19960;-84
2024/04/02 10:53:54;;;;;;;;;;;12.30;99.90;;;12.07;65.39;99496.06;5078658;28;19935;-84
2024/04/02 10:56:21;;;;;;;;;;;12.30;99.90;;;12.03;64.92;99490.38;5077648;28;20369;-80
2024/04/02 10:58:49;;;;;;;;;;;12.30;99.90;;;12.03;65.45;99492.25;5049732;28;20384;-80
2024/04/02 11:01:16;;;;;;;;;;;12.30;99.90;;;12.05;65.90;99485.63;5059175;28;19925;-81
2024/04/02 11:03:44;;;;;;;;;;;12.40;99.90;;;12.18;65.93;99489.78;5057275;28;19928;-80
2024/04/02 11:06:10;;;;;;;;;;;12.40;99.90;;;12.31;66.01;99478.75;5072353;28;20375;-80
2024/04/02 11:08:38;;;;;;;;;;;12.60;99.90;;;12.37;66.19;99491.13;5043290;28;20036;-80
2024/04/02 11:11:06;;;;;;;;;;;12.60;99.90;;;12.44;66.57;99487.47;5078167;28;19970;-80
2024/04/02 11:13:34;;;;;;;;;;;12.70;99.90;;;12.51;66.75;99480.88;5076261;28;20026;-80
2024/04/02 11:16:01;;;;;;;;;;;12.80;99.90;;;12.53;66.11;99488.66;5061085;28;19925;-80
2024/04/02 11:18:29;;;;;;;;;;;12.80;99.90;;;12.45;64.10;99487.25;5057679;28;19932;-81